createdAt,value
2023-05-04T01:18:26.640Z,72.30
2023-05-04T01:50:58.377Z,74.90
2023-05-04T03:37:18.232Z,84.20
2023-05-04T04:04:08.453Z,73.30
2023-05-04T04:10:32.312Z,72.70
2023-05-04T04:11:36.580Z,75.40
2023-05-04T04:22:20.058Z,75.20
2023-05-04T04:37:22.523Z,73.80
2023-05-04T04:38:28.714Z,74.00
2023-05-04T04:40:36.868Z,76.20
2023-05-04T04:41:42.281Z,73.80
2023-05-04T04:42:48.290Z,73.90
2023-05-04T04:43:51.060Z,75.60
2023-05-04T04:44:55.104Z,73.50
2023-05-04T04:45:58.962Z,71.50
2023-05-04T04:47:03.054Z,72.00
2023-05-04T04:48:07.127Z,71.70
2023-05-04T04:49:11.075Z,71.20
2023-05-04T04:50:14.679Z,70.50
2023-05-04T04:51:18.944Z,70.60
2023-05-04T04:52:23.487Z,70.50
2023-05-04T04:53:27.385Z,70.60
2023-05-04T04:54:32.042Z,69.90
2023-05-04T04:55:36.384Z,70.80
2023-05-04T04:56:40.751Z,68.20
2023-05-04T04:57:45.079Z,70.90
2023-05-04T04:58:51.184Z,70.20
2023-05-04T04:59:55.158Z,70.80
2023-05-04T05:00:58.684Z,69.80
2023-05-04T05:02:03.229Z,70.30
2023-05-04T05:04:11.230Z,68.70
2023-05-04T05:05:14.223Z,67.70
2023-05-04T05:14:52.215Z,61.40
2023-05-04T05:19:06.390Z,59.70
2023-05-04T05:20:11.551Z,60.20
2023-05-04T05:21:16.098Z,59.40
2023-05-04T05:22:19.020Z,58.70
2023-05-04T05:23:23.137Z,58.50
2023-05-04T05:24:26.588Z,58.20
2023-05-04T05:25:29.917Z,57.80
2023-05-04T05:26:33.988Z,57.70
2023-05-04T05:27:40.035Z,57.50
2023-05-04T05:28:42.988Z,55.40
2023-05-04T05:30:52.354Z,54.20
2023-05-04T05:31:55.226Z,54.10
2023-05-04T05:32:59.085Z,54.80
2023-05-04T05:34:02.202Z,54.00
2023-05-04T05:35:07.213Z,53.80
2023-05-04T05:37:14.410Z,52.20
2023-05-04T05:38:21.499Z,53.10
2023-05-04T05:39:25.807Z,52.90
2023-05-04T05:40:28.658Z,51.80
2023-05-04T05:41:32.656Z,52.60
2023-05-04T05:42:35.161Z,52.00
2023-05-04T05:43:39.148Z,51.90
2023-05-04T05:44:42.212Z,51.70
2023-05-04T05:45:46.226Z,51.00
2023-05-04T05:46:50.903Z,51.40
2023-05-04T05:48:57.688Z,51.20
2023-05-04T05:50:01.300Z,49.50
2023-05-04T05:51:05.671Z,50.30
2023-05-04T05:52:10.067Z,50.10
2023-05-04T05:53:12.981Z,50.10
2023-05-04T05:54:16.677Z,50.80
2023-05-04T05:55:20.354Z,51.00
2023-05-04T05:57:27.169Z,49.50
2023-05-04T05:58:30.759Z,49.50
2023-05-04T06:00:40.574Z,49.50
2023-05-04T06:01:43.263Z,49.20
2023-05-04T06:03:52.337Z,49.30
2023-05-04T06:06:00.493Z,49.10
2023-05-04T06:08:07.102Z,49.10
2023-05-04T06:09:09.757Z,49.00
2023-05-04T06:10:13.868Z,49.10
2023-05-04T06:11:19.768Z,48.50
2023-05-04T06:13:28.527Z,48.60
2023-05-04T06:15:36.663Z,48.20
2023-05-04T06:16:39.291Z,48.30
2023-05-04T06:17:43.414Z,48.70
2023-05-04T06:18:47.627Z,48.70
2023-05-04T06:19:51.735Z,48.10
2023-05-04T06:21:00.427Z,47.90
2023-05-04T06:22:03.156Z,48.90
2023-05-04T06:23:07.612Z,50.20
2023-05-04T06:24:11.575Z,48.90
2023-05-04T06:25:14.198Z,48.00
2023-05-04T06:27:25.049Z,46.80
2023-05-04T06:28:28.488Z,48.30
2023-05-04T06:29:32.791Z,47.50
2023-05-04T06:30:36.664Z,47.80
2023-05-04T06:31:40.468Z,49.80
2023-05-04T06:32:47.120Z,46.90
2023-05-04T06:33:52.544Z,46.50
2023-05-04T06:34:56.152Z,46.30
2023-05-04T06:38:09.598Z,46.30
2023-05-04T06:39:12.548Z,45.40
2023-05-04T06:40:16.663Z,45.50
2023-05-04T06:41:19.129Z,45.30
2023-05-04T06:42:22.935Z,46.10
2023-05-04T06:43:27.253Z,45.00
2023-05-04T06:44:31.159Z,45.50
2023-05-04T06:45:35.318Z,45.80
2023-05-04T06:47:43.168Z,44.70
2023-05-04T06:48:47.041Z,45.60
2023-05-04T06:49:52.052Z,44.70
2023-05-04T06:50:55.166Z,45.20
2023-05-04T06:51:59.216Z,45.20
2023-05-04T06:53:08.241Z,44.80
2023-05-04T06:54:11.571Z,45.00
2023-05-04T06:55:15.570Z,45.40
2023-05-04T06:56:18.538Z,46.10
2023-05-04T06:57:22.162Z,44.00
2023-05-04T06:58:28.109Z,45.00
2023-05-04T06:59:32.233Z,44.80
2023-05-04T07:00:35.318Z,45.40
2023-05-04T07:01:39.572Z,45.40
2023-05-04T07:02:43.246Z,44.60
2023-05-04T07:03:45.836Z,49.60
2023-05-04T07:04:52.793Z,48.10
2023-05-04T07:05:56.503Z,46.80
2023-05-04T07:07:00.672Z,48.20
2023-05-04T07:08:04.327Z,47.70
2023-05-04T07:09:07.219Z,45.60
2023-05-04T07:10:11.681Z,43.80
2023-05-04T07:11:14.209Z,45.00
2023-05-04T07:12:18.520Z,46.90
2023-05-04T07:14:25.765Z,46.90
2023-05-04T07:15:29.712Z,46.00
2023-05-04T07:16:33.194Z,45.80
2023-05-04T07:17:38.246Z,44.30
2023-05-04T07:18:40.849Z,45.00
2023-05-04T07:19:44.298Z,46.20
2023-05-04T07:20:49.362Z,44.70
2023-05-04T07:21:52.214Z,45.50
2023-05-04T07:22:57.298Z,45.10
2023-05-04T07:24:01.537Z,46.60
2023-05-04T07:25:05.959Z,45.20
2023-05-04T07:26:10.064Z,44.40
2023-05-04T07:27:13.314Z,44.50
2023-05-04T07:28:17.291Z,46.50
2023-05-04T07:29:20.401Z,44.20
2023-05-04T15:17:59.922Z,35.20
2023-05-04T17:17:50.507Z,38.80
2023-05-04T19:17:40.787Z,46.60
